sensor_id;sensor_type;location;lat;lon;timestamp;temperature;humidity
55634;DHT22;41504;53.162;6.788;2023-12-20T00:01:38;6.50;99.90
55634;DHT22;41504;53.162;6.788;2023-12-20T00:04:03;6.60;99.90
55634;DHT22;41504;53.162;6.788;2023-12-20T00:06:30;6.40;99.90
55634;DHT22;41504;53.162;6.788;2023-12-20T00:08:56;6.50;99.90
55634;DHT22;41504;53.162;6.788;2023-12-20T00:11:23;6.40;99.90
55634;DHT22;41504;53.162;6.788;2023-12-20T00:13:49;6.40;99.90
55634;DHT22;41504;53.162;6.788;2023-12-20T00:16:15;6.40;99.90
55634;DHT22;41504;53.162;6.788;2023-12-20T00:18:40;6.40;99.90
55634;DHT22;41504;53.162;6.788;2023-12-20T00:21:06;6.40;99.90
55634;DHT22;41504;53.162;6.788;2023-12-20T00:23:32;6.30;99.90
55634;DHT22;41504;53.162;6.788;2023-12-20T00:25:57;6.30;99.90
55634;DHT22;41504;53.162;6.788;2023-12-20T00:28:23;6.30;99.90
55634;DHT22;41504;53.162;6.788;2023-12-20T00:30:49;6.30;99.90
55634;DHT22;41504;53.162;6.788;2023-12-20T00:33:14;6.30;99.90
55634;DHT22;41504;53.162;6.788;2023-12-20T00:35:40;6.30;99.90
55634;DHT22;41504;53.162;6.788;2023-12-20T00:38:06;6.30;99.90
55634;DHT22;41504;53.162;6.788;2023-12-20T00:40:34;6.30;99.90
55634;DHT22;41504;53.162;6.788;2023-12-20T00:43:00;6.30;99.90
55634;DHT22;41504;53.162;6.788;2023-12-20T00:45:25;6.30;99.90
55634;DHT22;41504;53.162;6.788;2023-12-20T00:47:51;6.30;99.90
55634;DHT22;41504;53.162;6.788;2023-12-20T00:50:26;6.30;99.90
55634;DHT22;41504;53.162;6.788;2023-12-20T00:52:54;6.20;99.90
55634;DHT22;41504;53.162;6.788;2023-12-20T00:55:20;6.20;99.90
55634;DHT22;41504;53.162;6.788;2023-12-20T00:57:46;6.50;99.90
55634;DHT22;41504;53.162;6.788;2023-12-20T01:00:15;6.30;99.90
55634;DHT22;41504;53.162;6.788;2023-12-20T01:02:41;6.30;99.90
55634;DHT22;41504;53.162;6.788;2023-12-20T01:05:06;6.30;99.90
55634;DHT22;41504;53.162;6.788;2023-12-20T01:07:34;6.30;99.90
55634;DHT22;41504;53.162;6.788;2023-12-20T01:10:00;6.30;99.90
55634;DHT22;41504;53.162;6.788;2023-12-20T01:12:26;6.70;99.90
55634;DHT22;41504;53.162;6.788;2023-12-20T01:14:51;6.30;99.90
55634;DHT22;41504;53.162;6.788;2023-12-20T01:17:20;6.30;99.90
55634;DHT22;41504;53.162;6.788;2023-12-20T01:19:46;6.30;99.90
55634;DHT22;41504;53.162;6.788;2023-12-20T01:22:12;6.30;99.90
55634;DHT22;41504;53.162;6.788;2023-12-20T01:24:37;6.30;99.90
55634;DHT22;41504;53.162;6.788;2023-12-20T01:27:03;6.30;99.90
55634;DHT22;41504;53.162;6.788;2023-12-20T01:29:29;6.30;99.90
55634;DHT22;41504;53.162;6.788;2023-12-20T01:31:55;6.30;99.90
55634;DHT22;41504;53.162;6.788;2023-12-20T01:34:20;6.30;99.90
55634;DHT22;41504;53.162;6.788;2023-12-20T01:36:46;6.20;99.90
55634;DHT22;41504;53.162;6.788;2023-12-20T01:39:12;6.30;99.90
55634;DHT22;41504;53.162;6.788;2023-12-20T01:41:37;6.50;99.90
55634;DHT22;41504;53.162;6.788;2023-12-20T01:44:03;6.30;99.90
55634;DHT22;41504;53.162;6.788;2023-12-20T01:46:30;6.30;99.90
55634;DHT22;41504;53.162;6.788;2023-12-20T01:48:55;6.30;99.90
55634;DHT22;41504;53.162;6.788;2023-12-20T01:51:21;6.40;99.90
55634;DHT22;41504;53.162;6.788;2023-12-20T01:53:48;6.40;99.90
55634;DHT22;41504;53.162;6.788;2023-12-20T01:56:18;6.40;99.90
55634;DHT22;41504;53.162;6.788;2023-12-20T01:58:44;6.40;99.90
55634;DHT22;41504;53.162;6.788;2023-12-20T02:01:12;6.40;99.90
55634;DHT22;41504;53.162;6.788;2023-12-20T02:03:42;6.40;99.90
55634;DHT22;41504;53.162;6.788;2023-12-20T02:06:08;6.40;99.90
55634;DHT22;41504;53.162;6.788;2023-12-20T02:08:35;6.40;99.90
55634;DHT22;41504;53.162;6.788;2023-12-20T02:11:01;6.40;99.90
55634;DHT22;41504;53.162;6.788;2023-12-20T02:13:27;6.30;99.90
55634;DHT22;41504;53.162;6.788;2023-12-20T02:15:54;6.40;99.90
55634;DHT22;41504;53.162;6.788;2023-12-20T02:18:20;6.40;99.90
55634;DHT22;41504;53.162;6.788;2023-12-20T02:20:45;6.30;99.90
55634;DHT22;41504;53.162;6.788;2023-12-20T02:23:12;6.40;99.90
55634;DHT22;41504;53.162;6.788;2023-12-20T02:25:38;6.40;99.90
55634;DHT22;41504;53.162;6.788;2023-12-20T02:28:05;6.40;99.90
55634;DHT22;41504;53.162;6.788;2023-12-20T02:30:31;6.40;99.90
55634;DHT22;41504;53.162;6.788;2023-12-20T02:32:56;6.30;99.90
55634;DHT22;41504;53.162;6.788;2023-12-20T02:35:23;6.30;99.90
55634;DHT22;41504;53.162;6.788;2023-12-20T02:37:48;6.30;99.90
55634;DHT22;41504;53.162;6.788;2023-12-20T02:40:14;6.20;99.90
55634;DHT22;41504;53.162;6.788;2023-12-20T02:42:40;6.20;99.90
55634;DHT22;41504;53.162;6.788;2023-12-20T02:45:06;6.30;99.90
55634;DHT22;41504;53.162;6.788;2023-12-20T02:47:32;6.20;99.90
55634;DHT22;41504;53.162;6.788;2023-12-20T02:49:57;6.20;99.90
55634;DHT22;41504;53.162;6.788;2023-12-20T02:52:24;6.20;99.90
55634;DHT22;41504;53.162;6.788;2023-12-20T02:54:50;6.30;99.90
55634;DHT22;41504;53.162;6.788;2023-12-20T02:57:15;6.30;99.90
55634;DHT22;41504;53.162;6.788;2023-12-20T02:59:41;6.40;99.90
55634;DHT22;41504;53.162;6.788;2023-12-20T03:02:07;6.50;99.90
55634;DHT22;41504;53.162;6.788;2023-12-20T03:04:32;6.30;99.90
55634;DHT22;41504;53.162;6.788;2023-12-20T03:06:58;6.30;99.90
55634;DHT22;41504;53.162;6.788;2023-12-20T03:09:24;6.30;99.90
55634;DHT22;41504;53.162;6.788;2023-12-20T03:11:55;6.40;99.90
55634;DHT22;41504;53.162;6.788;2023-12-20T03:14:21;6.40;99.90
55634;DHT22;41504;53.162;6.788;2023-12-20T03:16:50;6.30;99.90
55634;DHT22;41504;53.162;6.788;2023-12-20T03:19:17;6.40;99.90
55634;DHT22;41504;53.162;6.788;2023-12-20T03:21:43;6.50;99.90
55634;DHT22;41504;53.162;6.788;2023-12-20T03:24:09;6.30;99.90
55634;DHT22;41504;53.162;6.788;2023-12-20T03:26:34;6.30;99.90
55634;DHT22;41504;53.162;6.788;2023-12-20T03:29:00;6.30;99.90
55634;DHT22;41504;53.162;6.788;2023-12-20T03:31:26;6.40;99.90
55634;DHT22;41504;53.162;6.788;2023-12-20T03:33:51;6.40;99.90
55634;DHT22;41504;53.162;6.788;2023-12-20T03:36:19;6.40;99.90
55634;DHT22;41504;53.162;6.788;2023-12-20T03:38:45;6.50;99.90
55634;DHT22;41504;53.162;6.788;2023-12-20T03:41:11;6.50;99.90
55634;DHT22;41504;53.162;6.788;2023-12-20T03:43:37;6.60;99.90
55634;DHT22;41504;53.162;6.788;2023-12-20T03:46:03;6.60;99.90
55634;DHT22;41504;53.162;6.788;2023-12-20T03:48:30;6.60;99.90
55634;DHT22;41504;53.162;6.788;2023-12-20T03:50:57;6.60;99.90
55634;DHT22;41504;53.162;6.788;2023-12-20T03:53:25;6.70;99.90
55634;DHT22;41504;53.162;6.788;2023-12-20T03:55:54;6.70;99.90
55634;DHT22;41504;53.162;6.788;2023-12-20T03:58:20;6.70;99.90
55634;DHT22;41504;53.162;6.788;2023-12-20T04:00:46;6.70;99.90
55634;DHT22;41504;53.162;6.788;2023-12-20T04:03:11;6.60;99.90
55634;DHT22;41504;53.162;6.788;2023-12-20T04:05:40;6.70;99.90
55634;DHT22;41504;53.162;6.788;2023-12-20T04:08:07;6.70;99.90
55634;DHT22;41504;53.162;6.788;2023-12-20T04:10:32;6.60;99.90
55634;DHT22;41504;53.162;6.788;2023-12-20T04:12:58;6.80;99.90
55634;DHT22;41504;53.162;6.788;2023-12-20T04:15:24;6.70;99.90
55634;DHT22;41504;53.162;6.788;2023-12-20T04:17:49;6.70;99.90
55634;DHT22;41504;53.162;6.788;2023-12-20T04:20:15;6.60;99.90
55634;DHT22;41504;53.162;6.788;2023-12-20T04:22:41;6.60;99.90
55634;DHT22;41504;53.162;6.788;2023-12-20T04:25:08;6.60;99.90
55634;DHT22;41504;53.162;6.788;2023-12-20T04:27:36;6.60;99.90
55634;DHT22;41504;53.162;6.788;2023-12-20T04:30:02;6.60;99.90
55634;DHT22;41504;53.162;6.788;2023-12-20T04:32:28;6.70;99.90
55634;DHT22;41504;53.162;6.788;2023-12-20T04:34:53;6.60;99.90
55634;DHT22;41504;53.162;6.788;2023-12-20T04:37:19;6.70;99.90
55634;DHT22;41504;53.162;6.788;2023-12-20T04:39:47;6.60;99.90
55634;DHT22;41504;53.162;6.788;2023-12-20T04:42:13;6.70;99.90
55634;DHT22;41504;53.162;6.788;2023-12-20T04:44:41;6.70;99.90
55634;DHT22;41504;53.162;6.788;2023-12-20T04:47:09;6.80;99.90
55634;DHT22;41504;53.162;6.788;2023-12-20T04:49:34;6.70;99.90
55634;DHT22;41504;53.162;6.788;2023-12-20T04:52:00;6.70;99.90
55634;DHT22;41504;53.162;6.788;2023-12-20T04:54:26;7.20;99.90
55634;DHT22;41504;53.162;6.788;2023-12-20T04:56:51;6.70;99.90
55634;DHT22;41504;53.162;6.788;2023-12-20T04:59:20;6.80;99.90
55634;DHT22;41504;53.162;6.788;2023-12-20T05:01:45;6.90;99.90
55634;DHT22;41504;53.162;6.788;2023-12-20T05:04:11;6.80;99.90
55634;DHT22;41504;53.162;6.788;2023-12-20T05:06:37;6.90;99.90
55634;DHT22;41504;53.162;6.788;2023-12-20T05:09:03;6.90;99.90
55634;DHT22;41504;53.162;6.788;2023-12-20T05:11:28;6.90;99.90
55634;DHT22;41504;53.162;6.788;2023-12-20T05:13:54;6.90;99.90
55634;DHT22;41504;53.162;6.788;2023-12-20T05:16:20;7.00;99.90
55634;DHT22;41504;53.162;6.788;2023-12-20T05:18:49;7.00;99.90
55634;DHT22;41504;53.162;6.788;2023-12-20T05:21:15;7.00;99.90
55634;DHT22;41504;53.162;6.788;2023-12-20T05:23:41;7.10;99.90
55634;DHT22;41504;53.162;6.788;2023-12-20T05:26:07;7.00;99.90
55634;DHT22;41504;53.162;6.788;2023-12-20T05:28:33;7.00;99.90
55634;DHT22;41504;53.162;6.788;2023-12-20T05:30:58;7.00;99.90
55634;DHT22;41504;53.162;6.788;2023-12-20T05:33:24;7.00;99.90
55634;DHT22;41504;53.162;6.788;2023-12-20T05:35:50;7.00;99.90
55634;DHT22;41504;53.162;6.788;2023-12-20T05:38:16;7.00;99.90
55634;DHT22;41504;53.162;6.788;2023-12-20T05:40:42;7.10;99.90
55634;DHT22;41504;53.162;6.788;2023-12-20T05:43:07;7.10;99.90
55634;DHT22;41504;53.162;6.788;2023-12-20T05:45:33;7.10;99.90
55634;DHT22;41504;53.162;6.788;2023-12-20T05:47:59;7.10;99.90
55634;DHT22;41504;53.162;6.788;2023-12-20T05:50:25;7.40;99.90
55634;DHT22;41504;53.162;6.788;2023-12-20T05:52:51;7.20;99.90
55634;DHT22;41504;53.162;6.788;2023-12-20T05:55:17;7.20;99.90
55634;DHT22;41504;53.162;6.788;2023-12-20T05:57:42;7.20;99.90
55634;DHT22;41504;53.162;6.788;2023-12-20T06:00:09;7.20;99.90
55634;DHT22;41504;53.162;6.788;2023-12-20T06:02:35;7.20;99.90
55634;DHT22;41504;53.162;6.788;2023-12-20T06:05:04;7.20;99.90
55634;DHT22;41504;53.162;6.788;2023-12-20T06:07:30;7.20;99.90
55634;DHT22;41504;53.162;6.788;2023-12-20T06:09:55;7.20;99.90
55634;DHT22;41504;53.162;6.788;2023-12-20T06:12:21;7.20;99.90
55634;DHT22;41504;53.162;6.788;2023-12-20T06:14:49;7.30;99.90
55634;DHT22;41504;53.162;6.788;2023-12-20T06:17:15;7.30;99.90
55634;DHT22;41504;53.162;6.788;2023-12-20T06:19:40;7.30;99.90
55634;DHT22;41504;53.162;6.788;2023-12-20T06:22:10;7.30;99.90
55634;DHT22;41504;53.162;6.788;2023-12-20T06:24:36;7.30;99.90
55634;DHT22;41504;53.162;6.788;2023-12-20T06:27:02;7.30;99.90
55634;DHT22;41504;53.162;6.788;2023-12-20T06:29:28;7.30;99.90
55634;DHT22;41504;53.162;6.788;2023-12-20T06:31:53;7.30;99.90
55634;DHT22;41504;53.162;6.788;2023-12-20T06:34:19;7.30;99.90
55634;DHT22;41504;53.162;6.788;2023-12-20T06:36:45;7.30;99.90
55634;DHT22;41504;53.162;6.788;2023-12-20T06:39:11;7.40;99.90
55634;DHT22;41504;53.162;6.788;2023-12-20T06:41:38;7.30;99.90
55634;DHT22;41504;53.162;6.788;2023-12-20T06:44:04;7.30;99.90
55634;DHT22;41504;53.162;6.788;2023-12-20T06:46:30;7.30;99.90
55634;DHT22;41504;53.162;6.788;2023-12-20T06:48:55;7.30;99.90
55634;DHT22;41504;53.162;6.788;2023-12-20T06:51:21;7.40;99.90
55634;DHT22;41504;53.162;6.788;2023-12-20T06:53:53;7.30;99.90
55634;DHT22;41504;53.162;6.788;2023-12-20T06:56:18;7.30;99.90
55634;DHT22;41504;53.162;6.788;2023-12-20T06:58:44;7.30;99.90
55634;DHT22;41504;53.162;6.788;2023-12-20T07:01:14;7.30;99.90
55634;DHT22;41504;53.162;6.788;2023-12-20T07:03:40;7.40;99.90
55634;DHT22;41504;53.162;6.788;2023-12-20T07:06:06;7.40;99.90
55634;DHT22;41504;53.162;6.788;2023-12-20T07:08:32;7.50;99.90
55634;DHT22;41504;53.162;6.788;2023-12-20T07:10:58;7.50;99.90
55634;DHT22;41504;53.162;6.788;2023-12-20T07:13:24;7.50;99.90
55634;DHT22;41504;53.162;6.788;2023-12-20T07:15:50;7.60;99.90
55634;DHT22;41504;53.162;6.788;2023-12-20T07:18:16;7.50;99.90
55634;DHT22;41504;53.162;6.788;2023-12-20T07:20:42;7.60;99.90
55634;DHT22;41504;53.162;6.788;2023-12-20T07:23:08;7.60;99.90
55634;DHT22;41504;53.162;6.788;2023-12-20T07:25:34;7.60;99.90
55634;DHT22;41504;53.162;6.788;2023-12-20T07:28:00;7.60;99.90
55634;DHT22;41504;53.162;6.788;2023-12-20T07:30:25;7.60;99.90
55634;DHT22;41504;53.162;6.788;2023-12-20T07:32:51;7.60;99.90
55634;DHT22;41504;53.162;6.788;2023-12-20T07:35:18;7.60;99.90
55634;DHT22;41504;53.162;6.788;2023-12-20T07:37:43;8.00;99.90
55634;DHT22;41504;53.162;6.788;2023-12-20T07:40:10;7.80;99.90
55634;DHT22;41504;53.162;6.788;2023-12-20T07:42:36;7.70;99.90
55634;DHT22;41504;53.162;6.788;2023-12-20T07:45:02;7.70;99.90
55634;DHT22;41504;53.162;6.788;2023-12-20T07:47:28;7.70;99.90
55634;DHT22;41504;53.162;6.788;2023-12-20T07:49:54;7.80;99.90
55634;DHT22;41504;53.162;6.788;2023-12-20T07:52:19;8.30;99.90
55634;DHT22;41504;53.162;6.788;2023-12-20T07:54:45;7.90;99.90
55634;DHT22;41504;53.162;6.788;2023-12-20T07:57:12;7.80;99.90
55634;DHT22;41504;53.162;6.788;2023-12-20T07:59:37;7.90;99.90
55634;DHT22;41504;53.162;6.788;2023-12-20T08:02:06;7.90;99.90
55634;DHT22;41504;53.162;6.788;2023-12-20T08:04:32;7.90;99.90
55634;DHT22;41504;53.162;6.788;2023-12-20T08:06:58;7.90;99.90
55634;DHT22;41504;53.162;6.788;2023-12-20T08:09:24;7.90;99.90
55634;DHT22;41504;53.162;6.788;2023-12-20T08:11:49;8.00;99.90
55634;DHT22;41504;53.162;6.788;2023-12-20T08:14:15;7.90;99.90
55634;DHT22;41504;53.162;6.788;2023-12-20T08:16:41;7.90;99.90
55634;DHT22;41504;53.162;6.788;2023-12-20T08:19:07;8.00;99.90
55634;DHT22;41504;53.162;6.788;2023-12-20T08:21:33;8.00;99.90
55634;DHT22;41504;53.162;6.788;2023-12-20T08:23:59;8.00;99.90
55634;DHT22;41504;53.162;6.788;2023-12-20T08:26:26;8.00;99.90
55634;DHT22;41504;53.162;6.788;2023-12-20T08:28:54;8.00;99.90
55634;DHT22;41504;53.162;6.788;2023-12-20T08:31:20;8.00;99.90
55634;DHT22;41504;53.162;6.788;2023-12-20T08:33:47;8.00;99.90
55634;DHT22;41504;53.162;6.788;2023-12-20T08:36:14;8.00;99.90
55634;DHT22;41504;53.162;6.788;2023-12-20T08:38:40;8.00;99.90
55634;DHT22;41504;53.162;6.788;2023-12-20T08:41:07;8.00;99.90
55634;DHT22;41504;53.162;6.788;2023-12-20T08:43:34;8.00;99.90
55634;DHT22;41504;53.162;6.788;2023-12-20T08:46:00;8.10;99.90
55634;DHT22;41504;53.162;6.788;2023-12-20T08:48:33;8.10;99.90
55634;DHT22;41504;53.162;6.788;2023-12-20T08:50:59;8.10;99.90
55634;DHT22;41504;53.162;6.788;2023-12-20T08:53:27;8.00;99.90
55634;DHT22;41504;53.162;6.788;2023-12-20T08:55:55;7.70;99.90
55634;DHT22;41504;53.162;6.788;2023-12-20T08:58:23;7.30;99.90
55634;DHT22;41504;53.162;6.788;2023-12-20T09:00:49;7.00;99.90
55634;DHT22;41504;53.162;6.788;2023-12-20T09:03:24;6.70;99.90
55634;DHT22;41504;53.162;6.788;2023-12-20T09:05:49;6.50;99.90
55634;DHT22;41504;53.162;6.788;2023-12-20T09:08:15;6.30;99.90
55634;DHT22;41504;53.162;6.788;2023-12-20T09:10:41;6.10;99.90
55634;DHT22;41504;53.162;6.788;2023-12-20T09:13:06;6.00;99.90
55634;DHT22;41504;53.162;6.788;2023-12-20T09:15:32;5.90;99.90
55634;DHT22;41504;53.162;6.788;2023-12-20T09:17:59;5.90;99.90
55634;DHT22;41504;53.162;6.788;2023-12-20T09:20:25;5.90;99.90
55634;DHT22;41504;53.162;6.788;2023-12-20T09:22:51;5.90;99.90
55634;DHT22;41504;53.162;6.788;2023-12-20T09:25:16;5.90;99.90
55634;DHT22;41504;53.162;6.788;2023-12-20T09:27:43;5.90;99.90
55634;DHT22;41504;53.162;6.788;2023-12-20T09:30:09;5.90;99.90
55634;DHT22;41504;53.162;6.788;2023-12-20T09:32:35;5.90;99.90
55634;DHT22;41504;53.162;6.788;2023-12-20T09:35:02;5.90;99.90
55634;DHT22;41504;53.162;6.788;2023-12-20T09:37:30;6.00;99.90
55634;DHT22;41504;53.162;6.788;2023-12-20T09:39:56;6.00;99.90
55634;DHT22;41504;53.162;6.788;2023-12-20T09:42:33;6.00;99.90
55634;DHT22;41504;53.162;6.788;2023-12-20T09:45:02;6.00;99.90
55634;DHT22;41504;53.162;6.788;2023-12-20T09:47:28;6.00;99.90
55634;DHT22;41504;53.162;6.788;2023-12-20T09:49:54;6.10;99.90
55634;DHT22;41504;53.162;6.788;2023-12-20T09:52:25;6.10;99.90
55634;DHT22;41504;53.162;6.788;2023-12-20T09:54:54;6.10;99.90
55634;DHT22;41504;53.162;6.788;2023-12-20T09:57:21;6.60;99.90
55634;DHT22;41504;53.162;6.788;2023-12-20T09:59:46;6.20;99.90
55634;DHT22;41504;53.162;6.788;2023-12-20T10:02:13;6.20;99.90
55634;DHT22;41504;53.162;6.788;2023-12-20T10:04:46;6.30;99.90
55634;DHT22;41504;53.162;6.788;2023-12-20T10:07:13;6.30;99.90
55634;DHT22;41504;53.162;6.788;2023-12-20T10:09:38;6.30;99.90
55634;DHT22;41504;53.162;6.788;2023-12-20T10:12:05;6.30;99.90
55634;DHT22;41504;53.162;6.788;2023-12-20T10:14:32;6.30;99.90
55634;DHT22;41504;53.162;6.788;2023-12-20T10:17:05;6.30;99.90
55634;DHT22;41504;53.162;6.788;2023-12-20T10:19:37;6.30;99.90
55634;DHT22;41504;53.162;6.788;2023-12-20T10:22:04;6.40;99.90
55634;DHT22;41504;53.162;6.788;2023-12-20T10:24:30;6.40;99.90
55634;DHT22;41504;53.162;6.788;2023-12-20T10:27:07;6.40;99.90
55634;DHT22;41504;53.162;6.788;2023-12-20T10:29:36;6.50;99.90
55634;DHT22;41504;53.162;6.788;2023-12-20T10:34:47;6.40;99.90
55634;DHT22;41504;53.162;6.788;2023-12-20T10:37:13;6.40;99.90
55634;DHT22;41504;53.162;6.788;2023-12-20T10:39:39;6.50;99.90
55634;DHT22;41504;53.162;6.788;2023-12-20T10:42:05;6.50;99.90
55634;DHT22;41504;53.162;6.788;2023-12-20T10:44:31;6.60;99.90
55634;DHT22;41504;53.162;6.788;2023-12-20T10:46:57;6.60;99.90
55634;DHT22;41504;53.162;6.788;2023-12-20T10:49:25;6.60;99.90
55634;DHT22;41504;53.162;6.788;2023-12-20T10:51:54;6.70;99.90
55634;DHT22;41504;53.162;6.788;2023-12-20T10:54:22;6.70;99.90
55634;DHT22;41504;53.162;6.788;2023-12-20T10:56:51;6.70;99.90
55634;DHT22;41504;53.162;6.788;2023-12-20T10:59:19;7.10;99.90
55634;DHT22;41504;53.162;6.788;2023-12-20T11:01:45;6.80;99.90
55634;DHT22;41504;53.162;6.788;2023-12-20T11:04:31;6.80;99.90
55634;DHT22;41504;53.162;6.788;2023-12-20T11:07:15;6.80;99.90
55634;DHT22;41504;53.162;6.788;2023-12-20T11:09:49;6.90;99.90
55634;DHT22;41504;53.162;6.788;2023-12-20T11:15:08;6.90;99.90
55634;DHT22;41504;53.162;6.788;2023-12-20T11:17:34;6.90;99.90
55634;DHT22;41504;53.162;6.788;2023-12-20T11:22:31;7.00;99.90
55634;DHT22;41504;53.162;6.788;2023-12-20T11:25:05;6.90;99.90
55634;DHT22;41504;53.162;6.788;2023-12-20T11:27:34;6.90;99.90
55634;DHT22;41504;53.162;6.788;2023-12-20T11:29:59;6.90;99.90
55634;DHT22;41504;53.162;6.788;2023-12-20T11:32:28;6.90;99.90
55634;DHT22;41504;53.162;6.788;2023-12-20T11:35:16;6.90;99.90
55634;DHT22;41504;53.162;6.788;2023-12-20T11:37:43;6.90;99.90
55634;DHT22;41504;53.162;6.788;2023-12-20T11:40:12;7.00;99.90
55634;DHT22;41504;53.162;6.788;2023-12-20T11:42:44;6.90;99.90
55634;DHT22;41504;53.162;6.788;2023-12-20T11:45:13;6.90;99.90
55634;DHT22;41504;53.162;6.788;2023-12-20T11:47:42;7.00;99.90
55634;DHT22;41504;53.162;6.788;2023-12-20T11:50:08;7.00;99.90
55634;DHT22;41504;53.162;6.788;2023-12-20T11:52:34;7.00;99.90
55634;DHT22;41504;53.162;6.788;2023-12-20T11:55:00;7.10;99.90
55634;DHT22;41504;53.162;6.788;2023-12-20T11:57:26;7.10;99.90
55634;DHT22;41504;53.162;6.788;2023-12-20T11:59:51;7.10;99.90
55634;DHT22;41504;53.162;6.788;2023-12-20T12:02:17;7.20;99.90
55634;DHT22;41504;53.162;6.788;2023-12-20T12:04:43;7.20;99.90
55634;DHT22;41504;53.162;6.788;2023-12-20T12:07:08;7.20;99.90
55634;DHT22;41504;53.162;6.788;2023-12-20T12:09:35;7.30;99.90
55634;DHT22;41504;53.162;6.788;2023-12-20T12:12:01;7.30;99.90
55634;DHT22;41504;53.162;6.788;2023-12-20T12:14:27;7.30;99.90
55634;DHT22;41504;53.162;6.788;2023-12-20T12:16:53;7.30;99.90
55634;DHT22;41504;53.162;6.788;2023-12-20T12:19:26;7.30;99.90
55634;DHT22;41504;53.162;6.788;2023-12-20T12:22:04;7.30;99.90
55634;DHT22;41504;53.162;6.788;2023-12-20T12:24:33;7.30;99.90
55634;DHT22;41504;53.162;6.788;2023-12-20T12:26:58;7.30;99.90
55634;DHT22;41504;53.162;6.788;2023-12-20T12:29:24;7.30;99.90
55634;DHT22;41504;53.162;6.788;2023-12-20T12:31:50;7.30;99.90
55634;DHT22;41504;53.162;6.788;2023-12-20T12:34:17;7.40;99.90
55634;DHT22;41504;53.162;6.788;2023-12-20T12:36:43;7.40;99.90
55634;DHT22;41504;53.162;6.788;2023-12-20T12:39:11;7.40;99.90
55634;DHT22;41504;53.162;6.788;2023-12-20T12:41:37;7.30;99.90
55634;DHT22;41504;53.162;6.788;2023-12-20T12:44:03;7.40;99.90
55634;DHT22;41504;53.162;6.788;2023-12-20T12:46:29;7.40;99.90
55634;DHT22;41504;53.162;6.788;2023-12-20T12:48:55;7.40;99.90
55634;DHT22;41504;53.162;6.788;2023-12-20T12:51:21;7.40;99.90
55634;DHT22;41504;53.162;6.788;2023-12-20T12:53:46;7.40;99.90
55634;DHT22;41504;53.162;6.788;2023-12-20T12:56:13;7.50;99.90
55634;DHT22;41504;53.162;6.788;2023-12-20T12:58:39;7.50;99.90
55634;DHT22;41504;53.162;6.788;2023-12-20T13:01:05;7.50;99.90
55634;DHT22;41504;53.162;6.788;2023-12-20T13:03:30;7.70;99.90
55634;DHT22;41504;53.162;6.788;2023-12-20T13:05:56;7.60;99.90
55634;DHT22;41504;53.162;6.788;2023-12-20T13:08:22;7.60;99.90
55634;DHT22;41504;53.162;6.788;2023-12-20T13:10:48;7.90;99.90
55634;DHT22;41504;53.162;6.788;2023-12-20T13:13:13;7.70;99.90
55634;DHT22;41504;53.162;6.788;2023-12-20T13:15:39;7.70;99.90
55634;DHT22;41504;53.162;6.788;2023-12-20T13:18:06;7.70;99.90
55634;DHT22;41504;53.162;6.788;2023-12-20T13:20:32;7.70;99.90
55634;DHT22;41504;53.162;6.788;2023-12-20T13:22:58;7.60;99.90
55634;DHT22;41504;53.162;6.788;2023-12-20T13:25:24;7.60;99.90
55634;DHT22;41504;53.162;6.788;2023-12-20T13:27:50;7.60;99.90
55634;DHT22;41504;53.162;6.788;2023-12-20T13:30:16;7.50;99.90
55634;DHT22;41504;53.162;6.788;2023-12-20T13:32:42;7.50;99.90
55634;DHT22;41504;53.162;6.788;2023-12-20T13:35:09;7.50;99.90
55634;DHT22;41504;53.162;6.788;2023-12-20T13:37:35;7.50;99.90
55634;DHT22;41504;53.162;6.788;2023-12-20T13:40:01;7.40;99.90
55634;DHT22;41504;53.162;6.788;2023-12-20T13:42:28;7.50;99.90
55634;DHT22;41504;53.162;6.788;2023-12-20T13:44:54;7.40;99.90
55634;DHT22;41504;53.162;6.788;2023-12-20T13:47:20;7.70;99.90
55634;DHT22;41504;53.162;6.788;2023-12-20T13:49:45;7.30;99.90
55634;DHT22;41504;53.162;6.788;2023-12-20T13:52:11;7.30;99.90
55634;DHT22;41504;53.162;6.788;2023-12-20T13:54:37;7.30;99.90
55634;DHT22;41504;53.162;6.788;2023-12-20T13:57:03;7.30;99.90
55634;DHT22;41504;53.162;6.788;2023-12-20T13:59:29;7.20;99.90
55634;DHT22;41504;53.162;6.788;2023-12-20T14:01:55;7.20;99.90
55634;DHT22;41504;53.162;6.788;2023-12-20T14:04:22;7.20;99.90
55634;DHT22;41504;53.162;6.788;2023-12-20T14:06:48;7.20;99.90
55634;DHT22;41504;53.162;6.788;2023-12-20T14:09:14;7.10;99.90
55634;DHT22;41504;53.162;6.788;2023-12-20T14:11:40;7.20;99.90
55634;DHT22;41504;53.162;6.788;2023-12-20T14:14:09;7.10;99.90
55634;DHT22;41504;53.162;6.788;2023-12-20T14:16:36;7.10;99.90
55634;DHT22;41504;53.162;6.788;2023-12-20T14:19:01;7.00;99.90
55634;DHT22;41504;53.162;6.788;2023-12-20T14:21:29;7.00;99.90
55634;DHT22;41504;53.162;6.788;2023-12-20T14:23:54;7.00;99.90
55634;DHT22;41504;53.162;6.788;2023-12-20T14:26:20;7.00;99.90
55634;DHT22;41504;53.162;6.788;2023-12-20T14:28:46;7.10;99.90
55634;DHT22;41504;53.162;6.788;2023-12-20T14:31:12;7.00;99.90
55634;DHT22;41504;53.162;6.788;2023-12-20T14:33:37;7.20;99.90
55634;DHT22;41504;53.162;6.788;2023-12-20T14:36:05;6.90;99.90
55634;DHT22;41504;53.162;6.788;2023-12-20T14:38:31;6.90;99.90
55634;DHT22;41504;53.162;6.788;2023-12-20T14:40:57;6.90;99.90
55634;DHT22;41504;53.162;6.788;2023-12-20T14:43:23;6.90;99.90
55634;DHT22;41504;53.162;6.788;2023-12-20T14:45:49;6.90;99.90
55634;DHT22;41504;53.162;6.788;2023-12-20T14:48:16;6.80;99.90
55634;DHT22;41504;53.162;6.788;2023-12-20T14:50:42;6.70;99.90
55634;DHT22;41504;53.162;6.788;2023-12-20T14:53:08;6.80;99.90
55634;DHT22;41504;53.162;6.788;2023-12-20T14:55:34;6.70;99.90
55634;DHT22;41504;53.162;6.788;2023-12-20T14:58:00;6.70;99.90
55634;DHT22;41504;53.162;6.788;2023-12-20T15:00:26;6.70;99.90
55634;DHT22;41504;53.162;6.788;2023-12-20T15:02:52;6.70;99.90
55634;DHT22;41504;53.162;6.788;2023-12-20T15:05:21;6.80;99.90
55634;DHT22;41504;53.162;6.788;2023-12-20T15:07:46;6.60;99.90
55634;DHT22;41504;53.162;6.788;2023-12-20T15:10:13;6.50;99.90
55634;DHT22;41504;53.162;6.788;2023-12-20T15:12:39;6.60;99.90
55634;DHT22;41504;53.162;6.788;2023-12-20T15:15:06;6.60;99.90
55634;DHT22;41504;53.162;6.788;2023-12-20T15:17:32;6.60;99.90
55634;DHT22;41504;53.162;6.788;2023-12-20T15:19:58;6.60;99.90
55634;DHT22;41504;53.162;6.788;2023-12-20T15:22:24;6.60;99.90
55634;DHT22;41504;53.162;6.788;2023-12-20T15:24:51;6.60;99.90
55634;DHT22;41504;53.162;6.788;2023-12-20T15:27:19;6.60;99.90
55634;DHT22;41504;53.162;6.788;2023-12-20T15:29:44;6.60;99.90
55634;DHT22;41504;53.162;6.788;2023-12-20T15:32:10;6.60;99.90
55634;DHT22;41504;53.162;6.788;2023-12-20T15:34:36;6.60;99.90
55634;DHT22;41504;53.162;6.788;2023-12-20T15:37:01;6.50;99.90
55634;DHT22;41504;53.162;6.788;2023-12-20T15:39:27;6.50;99.90
55634;DHT22;41504;53.162;6.788;2023-12-20T15:41:53;6.70;99.90
55634;DHT22;41504;53.162;6.788;2023-12-20T15:44:19;6.50;99.90
55634;DHT22;41504;53.162;6.788;2023-12-20T15:46:44;6.50;99.90
55634;DHT22;41504;53.162;6.788;2023-12-20T15:49:10;6.50;99.90